Time;durP1;ratioP1;P1;durP2;ratioP2;P2;SDS_P1;SDS_P2;PMS_P1;PMS_P2;Temp;Humidity;BMP_temperature;BMP_pressure;BME280_temperature;BME280_humidity;BME280_pressure;Samples;Min_cycle;Max_cycle;Signal;HPM_P1;HPM_P2
2023/10/03 00:00:50;;;;;;;33.72;16.83;;;;;;;18.05;100.00;100894.59;5071749;28;20044;-64
2023/10/03 00:03:16;;;;;;;34.33;16.90;;;;;;;18.07;100.00;100884.75;5072503;28;20029;-66
2023/10/03 00:05:45;;;;;;;32.33;16.38;;;;;;;18.11;100.00;100889.09;5073092;28;20488;-66
2023/10/03 00:08:11;;;;;;;36.22;17.23;;;;;;;18.13;100.00;100878.38;5073304;28;20112;-66
2023/10/03 00:10:38;;;;;;;34.65;17.45;;;;;;;18.12;100.00;100877.47;5068901;28;20112;-66
2023/10/03 00:13:07;;;;;;;33.78;17.13;;;;;;;18.09;100.00;100877.56;5073155;28;20036;-66
2023/10/03 00:15:34;;;;;;;33.72;16.85;;;;;;;18.03;100.00;100860.81;5072990;28;20028;-67
2023/10/03 00:17:59;;;;;;;35.05;16.95;;;;;;;18.04;100.00;100860.75;5072873;28;20177;-65
2023/10/03 00:20:24;;;;;;;34.38;16.98;;;;;;;18.05;100.00;100865.16;5072956;28;20075;-65
2023/10/03 00:22:51;;;;;;;35.15;17.08;;;;;;;18.06;100.00;100866.94;5072874;28;20028;-65
2023/10/03 00:25:18;;;;;;;34.03;16.83;;;;;;;18.05;100.00;100865.16;5072821;28;20039;-66
2023/10/03 00:27:51;;;;;;;34.25;17.23;;;;;;;18.00;100.00;100863.53;5073160;28;20360;-66
2023/10/03 00:30:19;;;;;;;34.17;17.75;;;;;;;17.99;100.00;100853.78;5072708;28;20094;-68
2023/10/03 00:32:53;;;;;;;35.22;17.63;;;;;;;17.93;100.00;100842.31;5072629;28;20037;-67
2023/10/03 00:35:21;;;;;;;33.40;17.05;;;;;;;17.86;100.00;100843.34;5072640;28;20479;-68
2023/10/03 00:37:50;;;;;;;33.65;16.60;;;;;;;17.85;100.00;100841.59;5073024;28;20036;-67
2023/10/03 00:40:17;;;;;;;34.17;16.85;;;;;;;17.81;100.00;100845.28;5072722;28;20032;-67
2023/10/03 00:42:45;;;;;;;33.45;16.65;;;;;;;17.77;100.00;100836.44;5072411;28;20184;-67
2023/10/03 00:45:11;;;;;;;32.83;16.52;;;;;;;17.77;100.00;100833.78;5071199;28;20024;-67
2023/10/03 00:47:36;;;;;;;33.70;16.25;;;;;;;17.75;100.00;100822.25;5072901;28;20044;-68
2023/10/03 00:50:04;;;;;;;34.25;16.48;;;;;;;17.74;100.00;100812.47;5072435;28;20123;-68
2023/10/03 00:52:31;;;;;;;33.75;16.42;;;;;;;17.71;100.00;100811.69;5071500;28;20127;-68
2023/10/03 00:55:00;;;;;;;33.75;17.13;;;;;;;17.75;100.00;100798.19;5072659;28;20029;-68
2023/10/03 00:57:26;;;;;;;34.05;17.08;;;;;;;17.75;100.00;100797.28;5072349;28;20071;-67
2023/10/03 00:59:53;;;;;;;33.78;16.25;;;;;;;17.72;100.00;100792.94;5072379;28;20130;-67
2023/10/03 01:02:21;;;;;;;33.60;16.38;;;;;;;17.71;100.00;100788.50;5072524;28;20495;-68
2023/10/03 01:04:46;;;;;;;33.53;15.82;;;;;;;17.69;100.00;100776.97;5072330;28;20025;-68
2023/10/03 01:07:11;;;;;;;34.00;16.60;;;;;;;17.70;100.00;100775.16;5072415;28;20027;-67
2023/10/03 01:09:37;;;;;;;31.88;16.08;;;;;;;17.69;100.00;100763.63;5050740;28;20086;-68
2023/10/03 01:12:02;;;;;;;34.97;16.30;;;;;;;17.68;100.00;100760.94;5072575;28;20451;-67
2023/10/03 01:14:28;;;;;;;32.95;16.20;;;;;;;17.70;100.00;100748.44;5072418;28;20055;-68
2023/10/03 01:16:53;;;;;;;33.58;16.38;;;;;;;17.72;100.00;100755.50;5074801;28;20387;-68
2023/10/03 01:19:25;;;;;;;33.33;16.67;;;;;;;17.71;100.00;100755.56;5076239;28;20033;-68
2023/10/03 01:21:51;;;;;;;32.78;15.55;;;;;;;17.67;100.00;100746.72;5076171;28;20032;-68
2023/10/03 01:24:26;;;;;;;32.55;15.80;;;;;;;17.65;100.00;100750.34;5076582;28;20107;-68
2023/10/03 01:26:53;;;;;;;33.28;16.05;;;;;;;17.71;100.00;100747.53;5076015;28;20025;-68
2023/10/03 01:29:22;;;;;;;33.25;16.63;;;;;;;17.75;100.00;100742.06;5076010;28;20467;-68
2023/10/03 01:31:49;;;;;;;34.45;16.52;;;;;;;17.74;100.00;100742.09;5076029;28;20053;-65
2023/10/03 01:34:15;;;;;;;32.80;16.10;;;;;;;17.71;100.00;100737.72;5075981;28;20032;-66
2023/10/03 01:36:47;;;;;;;33.42;16.20;;;;;;;17.66;100.00;100734.25;5075987;28;20031;-65
2023/10/03 01:39:14;;;;;;;33.85;16.27;;;;;;;17.70;100.00;100743.09;5072620;28;20527;-66
2023/10/03 01:41:40;;;;;;;32.22;15.40;;;;;;;17.72;100.00;100728.78;5075719;28;20063;-66
2023/10/03 01:44:06;;;;;;;32.30;15.55;;;;;;;17.75;100.00;100723.34;5075996;28;20379;-66
2023/10/03 01:46:32;;;;;;;34.00;15.55;;;;;;;17.80;100.00;100720.53;5075882;28;20116;-66
2023/10/03 01:48:57;;;;;;;31.88;15.43;;;;;;;17.85;100.00;100736.44;5075710;28;20024;-66
2023/10/03 01:51:23;;;;;;;30.95;14.98;;;;;;;17.97;100.00;100728.13;5075529;28;20036;-66
2023/10/03 01:53:48;;;;;;;31.45;14.75;;;;;;;18.07;100.00;100718.94;5075742;28;20119;-66
2023/10/03 01:56:14;;;;;;;32.38;14.45;;;;;;;18.11;100.00;100717.91;5075596;28;20032;-66
2023/10/03 01:58:40;;;;;;;31.13;14.82;;;;;;;18.17;100.00;100718.66;5075492;28;20040;-65
2023/10/03 02:01:05;;;;;;;29.70;13.60;;;;;;;18.25;100.00;100717.50;5075626;28;20036;-65
2023/10/03 02:03:32;;;;;;;31.33;13.85;;;;;;;18.35;100.00;100718.13;5075331;28;20033;-65
2023/10/03 02:05:58;;;;;;;30.33;13.48;;;;;;;18.38;100.00;100714.47;5075355;28;20037;-66
2023/10/03 02:08:25;;;;;;;29.70;14.07;;;;;;;18.46;100.00;100716.00;5075509;28;20032;-66
2023/10/03 02:10:51;;;;;;;30.38;14.30;;;;;;;18.59;100.00;100704.91;5075568;28;20387;-66
2023/10/03 02:13:18;;;;;;;30.27;13.82;;;;;;;18.58;100.00;100711.16;5075305;28;20467;-66
2023/10/03 02:15:46;;;;;;;30.45;13.88;;;;;;;18.69;100.00;100702.81;5075314;28;20089;-66
2023/10/03 02:18:13;;;;;;;31.08;13.90;;;;;;;18.75;100.00;100700.81;5075092;28;20021;-65
2023/10/03 02:20:52;;;;;;;30.75;13.80;;;;;;;18.71;100.00;100693.81;5071322;28;20368;-68
2023/10/03 02:23:19;;;;;;;30.25;12.95;;;;;;;18.81;100.00;100689.03;5072471;28;20472;-68
2023/10/03 02:25:48;;;;;;;28.73;12.90;;;;;;;18.87;100.00;100672.78;5075284;28;20024;-68
2023/10/03 02:28:15;;;;;;;29.77;13.15;;;;;;;18.84;100.00;100663.94;5074355;28;20077;-67
2023/10/03 02:30:41;;;;;;;29.05;13.50;;;;;;;18.86;100.00;100691.53;5074832;28;20516;-68
2023/10/03 02:33:12;;;;;;;31.25;14.05;;;;;;;18.81;100.00;100699.72;5075100;28;20155;-68
2023/10/03 02:35:39;;;;;;;30.30;13.82;;;;;;;18.77;100.00;100698.06;5070772;28;20077;-68
2023/10/03 02:38:06;;;;;;;29.38;13.30;;;;;;;18.72;100.00;100697.34;5075054;28;20483;-68
2023/10/03 02:40:32;;;;;;;30.40;13.20;;;;;;;18.63;100.00;100698.53;5074749;28;20028;-68
2023/10/03 02:42:59;;;;;;;30.60;13.60;;;;;;;18.65;100.00;100683.28;5074986;28;20119;-68
2023/10/03 02:45:25;;;;;;;30.45;14.27;;;;;;;18.59;100.00;100691.50;5074639;28;20054;-68
2023/10/03 02:48:14;;;;;;;30.08;13.35;;;;;;;18.58;100.00;100687.06;5074704;28;20024;-68
2023/10/03 02:50:47;;;;;;;29.67;13.55;;;;;;;18.55;100.00;100704.13;5070896;28;20141;-68
2023/10/03 02:53:14;;;;;;;29.25;13.02;;;;;;;18.63;100.00;100695.84;5071188;28;20040;-68
2023/10/03 02:55:43;;;;;;;31.38;13.68;;;;;;;18.64;100.00;100698.47;5070585;28;20162;-69
2023/10/03 02:58:09;;;;;;;30.02;13.32;;;;;;;18.64;100.00;100705.66;5070287;28;20115;-68
2023/10/03 03:00:35;;;;;;;28.88;12.40;;;;;;;18.58;100.00;100700.47;5074401;28;20035;-68
2023/10/03 03:03:02;;;;;;;28.38;12.07;;;;;;;18.55;100.00;100705.91;5074244;28;20028;-68
2023/10/03 03:05:35;;;;;;;28.92;12.70;;;;;;;18.56;100.00;100696.97;5073308;28;20024;-68
2023/10/03 03:08:10;;;;;;;27.45;12.07;;;;;;;18.56;100.00;100700.50;5074469;28;20036;-68
2023/10/03 03:10:38;;;;;;;27.42;11.73;;;;;;;18.64;100.00;100709.19;5074428;28;20024;-68
2023/10/03 03:13:05;;;;;;;27.02;11.40;;;;;;;18.79;100.00;100697.09;5074101;28;20112;-67
2023/10/03 03:15:32;;;;;;;26.67;10.88;;;;;;;19.01;100.00;100701.81;5073979;28;20108;-67
2023/10/03 03:17:57;;;;;;;26.00;10.40;;;;;;;19.07;100.00;100696.22;5056514;28;20024;-68
2023/10/03 03:20:26;;;;;;;26.52;10.60;;;;;;;19.10;100.00;100705.97;5073823;28;20523;-68
2023/10/03 03:22:52;;;;;;;27.02;10.15;;;;;;;19.03;100.00;100707.97;5073906;28;20024;-68
2023/10/03 03:25:24;;;;;;;25.63;10.98;;;;;;;18.94;100.00;100701.13;5074023;28;20464;-64
2023/10/03 03:27:52;;;;;;;26.00;10.27;;;;;;;18.92;100.00;100702.97;5073827;28;20044;-63
2023/10/03 03:30:33;;;;;;;25.83;10.13;;;;;;;18.94;100.00;100697.56;5073597;28;20072;-64
2023/10/03 03:32:59;;;;;;;26.08;10.80;;;;;;;18.90;100.00;100686.09;5073915;28;20025;-63
2023/10/03 03:35:25;;;;;;;26.80;11.05;;;;;;;18.91;100.00;100687.81;5074086;28;20120;-63
2023/10/03 03:37:56;;;;;;;26.33;10.60;;;;;;;18.83;100.00;100687.19;5073221;28;20032;-65
2023/10/03 03:40:29;;;;;;;26.07;10.80;;;;;;;18.81;100.00;100697.94;5072987;28;20079;-64
2023/10/03 03:42:58;;;;;;;26.58;11.30;;;;;;;18.77;100.00;100698.97;5073893;28;20032;-62
2023/10/03 03:45:23;;;;;;;26.20;10.45;;;;;;;18.78;100.00;100700.69;5073442;28;20021;-63
2023/10/03 03:47:50;;;;;;;27.02;11.20;;;;;;;18.77;100.00;100698.06;5073614;28;20037;-62
2023/10/03 03:50:17;;;;;;;25.95;11.00;;;;;;;18.73;100.00;100705.34;5073820;28;20392;-65
2023/10/03 03:52:45;;;;;;;25.85;10.48;;;;;;;18.76;100.00;100697.22;5073490;28;20382;-65
2023/10/03 03:55:11;;;;;;;25.73;10.30;;;;;;;18.81;100.00;100705.09;5069424;28;20121;-63
2023/10/03 03:57:37;;;;;;;25.55;10.40;;;;;;;18.85;100.00;100713.91;5073440;28;20024;-65
2023/10/03 04:00:12;;;;;;;25.90;9.95;;;;;;;18.85;100.00;100719.28;5073121;28;20487;-64
2023/10/03 04:02:38;;;;;;;26.83;10.23;;;;;;;18.86;100.00;100727.28;5073162;28;20078;-64
2023/10/03 04:05:07;;;;;;;23.70;9.75;;;;;;;18.82;100.00;100721.09;5073063;28;20082;-63
2023/10/03 04:07:33;;;;;;;24.23;9.90;;;;;;;18.82;100.00;100728.28;5073207;28;20451;-63
2023/10/03 04:09:58;;;;;;;24.30;9.38;;;;;;;18.82;100.00;100713.06;5073053;28;20162;-66
2023/10/03 04:12:25;;;;;;;26.52;9.27;;;;;;;18.85;100.00;100730.84;5072888;28;20069;-63
2023/10/03 04:14:50;;;;;;;23.90;8.65;;;;;;;18.82;100.00;100737.16;5073298;28;20387;-66
2023/10/03 04:17:15;;;;;;;24.83;9.05;;;;;;;18.78;100.00;100748.91;5072953;28;20025;-67
2023/10/03 04:19:41;;;;;;;23.40;8.73;;;;;;;18.81;100.00;100737.22;5072828;28;20032;-67
2023/10/03 04:22:06;;;;;;;22.23;8.75;;;;;;;18.80;100.00;100740.84;5073223;28;20017;-68
2023/10/03 04:24:32;;;;;;;23.65;8.68;;;;;;;18.78;100.00;100759.59;5071463;28;20025;-68
2023/10/03 04:26:59;;;;;;;23.27;8.70;;;;;;;18.80;100.00;100741.72;5072953;28;20025;-68
2023/10/03 04:29:24;;;;;;;23.58;7.80;;;;;;;18.82;100.00;100752.38;5072785;28;20020;-68
2023/10/03 04:31:49;;;;;;;21.73;7.47;;;;;;;18.75;100.00;100753.47;5073083;28;20498;-68
2023/10/03 04:34:18;;;;;;;21.90;7.53;;;;;;;18.75;100.00;100759.69;5073133;28;20482;-68
2023/10/03 04:36:45;;;;;;;22.00;7.40;;;;;;;18.72;100.00;100767.84;5072914;28;20395;-67
2023/10/03 04:39:11;;;;;;;21.13;7.20;;;;;;;18.77;100.00;100762.34;5068695;28;20032;-67
2023/10/03 04:41:42;;;;;;;22.42;7.60;;;;;;;18.73;100.00;100774.94;5072761;28;20040;-68
2023/10/03 04:44:08;;;;;;;21.35;7.35;;;;;;;18.69;100.00;100764.38;5072728;28;20029;-68
2023/10/03 04:46:33;;;;;;;21.83;6.97;;;;;;;18.69;100.00;100773.28;5072552;28;20059;-68
2023/10/03 04:48:59;;;;;;;20.67;6.57;;;;;;;18.60;100.00;100770.91;5072650;28;20059;-68
2023/10/03 04:51:24;;;;;;;21.58;7.20;;;;;;;18.56;100.00;100785.28;5072102;28;20077;-68
2023/10/03 04:53:49;;;;;;;20.45;6.80;;;;;;;18.57;100.00;100771.00;5072445;28;20068;-67
2023/10/03 04:56:15;;;;;;;23.73;7.45;;;;;;;18.54;100.00;100796.03;5072589;28;20024;-68
2023/10/03 04:58:41;;;;;;;22.42;6.80;;;;;;;18.55;100.00;100783.53;5072557;28;20467;-68
2023/10/03 05:01:07;;;;;;;20.98;7.20;;;;;;;18.49;100.00;100783.72;5072335;28;20039;-63
2023/10/03 05:03:32;;;;;;;21.70;7.25;;;;;;;18.50;100.00;100769.44;5072395;28;20029;-63
2023/10/03 05:06:01;;;;;;;20.77;7.57;;;;;;;18.45;100.00;100765.09;5069274;28;20074;-67
2023/10/03 05:08:26;;;;;;;22.00;8.00;;;;;;;18.34;100.00;100769.88;5067452;28;20096;-67
2023/10/03 05:10:54;;;;;;;21.42;7.50;;;;;;;18.31;100.00;100791.38;5068751;28;20562;-65
2023/10/03 05:13:19;;;;;;;21.52;7.50;;;;;;;18.23;100.00;100810.31;5072185;28;20029;-63
2023/10/03 05:15:45;;;;;;;21.30;7.50;;;;;;;18.25;100.00;100821.84;5072041;28;20497;-67
2023/10/03 05:18:10;;;;;;;22.55;7.85;;;;;;;18.18;100.00;100840.78;5072315;28;20033;-66
2023/10/03 05:20:37;;;;;;;22.00;7.35;;;;;;;18.17;100.00;100842.56;5072138;28;20036;-64
2023/10/03 05:23:04;;;;;;;21.73;7.30;;;;;;;18.16;100.00;100840.81;5071525;28;20029;-64
2023/10/03 05:25:30;;;;;;;23.15;7.82;;;;;;;18.10;100.00;100823.16;5068547;28;20039;-66
2023/10/03 05:27:55;;;;;;;21.10;7.53;;;;;;;17.99;100.00;100800.28;5070518;28;20055;-65
2023/10/03 05:30:23;;;;;;;20.42;7.78;;;;;;;17.93;100.00;100785.28;5071766;28;20052;-67
2023/10/03 05:32:48;;;;;;;22.20;7.35;;;;;;;17.89;100.00;100796.94;5072204;28;20032;-66
2023/10/03 05:35:13;;;;;;;21.42;7.78;;;;;;;17.88;100.00;100804.09;5071529;28;20036;-66
2023/10/03 05:37:42;;;;;;;20.85;7.38;;;;;;;17.86;100.00;100805.06;5071850;28;20068;-64
2023/10/03 05:40:18;;;;;;;20.88;7.57;;;;;;;17.93;100.00;100812.03;5071916;28;20379;-64
2023/10/03 05:42:45;;;;;;;20.90;7.82;;;;;;;17.93;100.00;100822.72;5072050;28;20028;-66
2023/10/03 05:45:12;;;;;;;21.73;7.70;;;;;;;17.92;100.00;100820.97;5071858;28;20464;-66
2023/10/03 05:47:47;;;;;;;21.75;8.02;;;;;;;17.92;100.00;100820.97;5071821;28;20029;-70
2023/10/03 05:50:14;;;;;;;20.23;7.50;;;;;;;17.89;100.00;100826.34;5068081;28;20389;-68
2023/10/03 05:52:41;;;;;;;19.92;7.28;;;;;;;17.86;100.00;100818.41;5071678;28;20130;-64
2023/10/03 05:55:07;;;;;;;20.33;7.07;;;;;;;17.87;100.00;100820.19;5071544;28;20059;-66
2023/10/03 05:57:33;;;;;;;21.92;7.47;;;;;;;17.90;100.00;100814.78;5071747;28;20028;-66
2023/10/03 05:59:59;;;;;;;20.35;7.60;;;;;;;17.83;100.00;100814.03;5071205;28;20126;-73
2023/10/03 06:02:25;;;;;;;20.58;7.25;;;;;;;17.82;100.00;100825.63;5071955;28;20047;-62
2023/10/03 06:04:50;;;;;;;22.20;7.35;;;;;;;17.81;100.00;100823.00;5075503;28;20025;-64
2023/10/03 06:07:16;;;;;;;21.73;7.38;;;;;;;17.79;100.00;100831.06;5075068;28;20074;-65
2023/10/03 06:09:42;;;;;;;20.75;7.32;;;;;;;17.80;100.00;100831.97;5075028;28;20429;-68
2023/10/03 06:12:09;;;;;;;20.95;7.18;;;;;;;17.74;100.00;100822.28;5074809;28;20033;-66
2023/10/03 06:14:34;;;;;;;21.20;7.25;;;;;;;17.75;100.00;100835.63;5075146;28;20039;-64
2023/10/03 06:17:00;;;;;;;21.27;7.47;;;;;;;17.72;100.00;100846.41;5075363;28;20028;-62
2023/10/03 06:19:25;;;;;;;20.83;7.13;;;;;;;17.77;100.00;100846.28;5075180;28;20028;-68
2023/10/03 06:21:50;;;;;;;20.85;6.90;;;;;;;17.72;100.00;100842.81;5074859;28;20028;-69
2023/10/03 06:24:16;;;;;;;21.90;7.78;;;;;;;17.72;100.00;100846.41;5074803;28;20082;-69
2023/10/03 06:26:44;;;;;;;22.13;7.32;;;;;;;17.67;100.00;100850.97;5073474;28;20548;-67
2023/10/03 06:29:10;;;;;;;21.15;7.50;;;;;;;17.56;100.00;100872.63;5074709;28;20040;-67
2023/10/03 06:31:35;;;;;;;22.15;7.95;;;;;;;17.56;100.00;100861.03;5074680;28;20059;-66
2023/10/03 06:34:01;;;;;;;20.17;7.63;;;;;;;17.54;100.00;100861.06;5074232;28;20025;-62
2023/10/03 06:36:26;;;;;;;21.65;7.85;;;;;;;17.57;100.00;100868.16;5074880;28;20078;-63
2023/10/03 06:38:52;;;;;;;21.70;7.88;;;;;;;17.58;100.00;100869.91;5073689;28;20100;-63
2023/10/03 06:41:21;;;;;;;22.33;8.27;;;;;;;17.54;100.00;100863.75;5073402;28;20108;-63
2023/10/03 06:43:49;;;;;;;22.33;7.88;;;;;;;17.53;100.00;100862.00;5068410;28;20350;-63
2023/10/03 06:46:15;;;;;;;22.45;8.98;;;;;;;17.51;100.00;100881.66;5069689;28;20060;-63
2023/10/03 06:48:51;;;;;;;22.00;8.45;;;;;;;17.49;100.00;100883.47;5071990;28;20029;-62
2023/10/03 06:51:17;;;;;;;22.52;8.45;;;;;;;17.47;100.00;100888.84;5074485;28;20028;-63
2023/10/03 06:53:47;;;;;;;21.60;8.18;;;;;;;17.51;100.00;100903.03;5074271;28;20031;-64
2023/10/03 06:56:12;;;;;;;22.67;8.68;;;;;;;17.48;100.00;100905.78;5073222;28;20121;-63
2023/10/03 06:58:38;;;;;;;20.95;8.00;;;;;;;17.47;100.00;100909.38;5072862;28;20060;-64
2023/10/03 07:01:03;;;;;;;21.30;8.02;;;;;;;17.50;100.00;100911.97;5074067;28;20072;-62
2023/10/03 07:03:29;;;;;;;21.85;8.40;;;;;;;17.47;100.00;100914.72;5073034;28;20016;-64
2023/10/03 07:05:56;;;;;;;22.88;8.60;;;;;;;17.46;100.00;100919.19;5073822;28;20033;-63
2023/10/03 07:08:21;;;;;;;22.40;8.55;;;;;;;17.43;100.00;100917.47;5072999;28;20082;-65
2023/10/03 07:10:47;;;;;;;22.20;8.40;;;;;;;17.46;100.00;100912.94;5072386;28;20025;-63
2023/10/03 07:13:13;;;;;;;22.80;8.60;;;;;;;17.35;100.00;100924.75;5073954;28;20111;-62
2023/10/03 07:15:39;;;;;;;22.05;8.60;;;;;;;17.24;100.00;100929.44;5066537;28;20119;-62
2023/10/03 07:18:05;;;;;;;23.25;9.20;;;;;;;17.20;100.00;100925.13;5069602;28;20037;-61
2023/10/03 07:20:31;;;;;;;23.13;9.30;;;;;;;17.09;100.00;100922.66;5069877;28;20103;-62
2023/10/03 07:22:56;;;;;;;23.95;9.98;;;;;;;16.95;100.00;100930.97;5069566;28;20171;-62
2023/10/03 07:25:22;;;;;;;23.63;10.27;;;;;;;16.76;100.00;100932.22;5069505;28;20029;-66
2023/10/03 07:27:48;;;;;;;21.73;9.68;;;;;;;16.56;100.00;100938.84;5073622;28;20024;-63
2023/10/03 07:30:17;;;;;;;23.77;10.07;;;;;;;16.43;100.00;100937.31;5072293;28;20076;-63
2023/10/03 07:32:42;;;;;;;23.13;10.57;;;;;;;16.43;100.00;100932.84;5073467;28;20033;-62
2023/10/03 07:35:13;;;;;;;22.83;10.73;;;;;;;16.47;100.00;100936.31;5073115;28;20025;-62
2023/10/03 07:37:39;;;;;;;24.10;11.30;;;;;;;16.52;100.00;100951.34;5073618;28;20086;-62
2023/10/03 07:40:06;;;;;;;23.63;11.20;;;;;;;16.57;100.00;100948.56;5073342;28;20036;-62
2023/10/03 07:42:32;;;;;;;23.90;10.88;;;;;;;16.68;100.00;100951.94;5073297;28;20031;-63
2023/10/03 07:44:57;;;;;;;25.75;10.40;;;;;;;16.82;100.00;100961.44;5073469;28;20382;-63
2023/10/03 07:47:23;;;;;;;24.17;10.90;;;;;;;16.95;100.00;100984.38;5072942;28;20094;-62
2023/10/03 07:49:48;;;;;;;23.33;9.93;;;;;;;16.99;100.00;100991.38;5073243;28;20074;-63
2023/10/03 07:52:17;;;;;;;23.33;10.25;;;;;;;17.02;100.00;100988.69;5073616;28;20029;-64
2023/10/03 07:54:46;;;;;;;22.52;9.65;;;;;;;17.04;100.00;100988.66;5069570;28;20034;-63
2023/10/03 07:57:13;;;;;;;23.55;9.15;;;;;;;17.09;100.00;100992.09;5069259;28;20489;-62
2023/10/03 07:59:38;;;;;;;21.40;9.30;;;;;;;17.13;100.00;100982.25;5072981;28;20036;-63
2023/10/03 08:02:10;;;;;;;23.75;9.30;;;;;;;17.22;100.00;100968.69;5073143;28;20429;-62
2023/10/03 08:04:41;;;;;;;21.67;8.90;;;;;;;17.31;100.00;100984.50;5069772;28;20379;-67
2023/10/03 08:07:07;;;;;;;21.52;8.30;;;;;;;17.34;100.00;100994.25;5073002;28;20468;-66
2023/10/03 08:09:33;;;;;;;22.25;9.05;;;;;;;17.26;100.00;100999.78;5072940;28;20078;-63
2023/10/03 08:11:59;;;;;;;22.20;8.77;;;;;;;16.97;100.00;101011.91;5073240;28;20036;-62
2023/10/03 08:14:24;;;;;;;22.15;9.15;;;;;;;16.81;100.00;101035.31;5072704;28;20395;-63
2023/10/03 08:16:51;;;;;;;23.50;9.95;;;;;;;16.64;100.00;101029.41;5071678;28;20036;-63
2023/10/03 08:19:25;;;;;;;24.45;10.45;;;;;;;16.37;100.00;101043.19;5070040;28;20511;-63
2023/10/03 08:21:54;;;;;;;22.27;9.80;;;;;;;16.28;100.00;101054.03;5072521;28;20036;-63
2023/10/03 08:24:24;;;;;;;22.60;9.48;;;;;;;16.36;100.00;101062.78;5068785;28;20567;-62
2023/10/03 08:26:51;;;;;;;21.02;8.50;;;;;;;16.35;100.00;101063.69;5068920;28;20368;-63
2023/10/03 08:29:23;;;;;;;21.42;8.75;;;;;;;16.30;100.00;101062.88;5072495;28;20431;-63
2023/10/03 08:31:49;;;;;;;;;;;;;;;16.39;100.00;101068.06;5064577;28;20044;-70
2023/10/03 08:34:16;;;;;;;19.70;7.03;;;;;;;16.50;100.00;101083.03;5072762;28;19912;-70
2023/10/03 08:36:42;;;;;;;21.40;6.97;;;;;;;16.61;100.00;101078.38;5072500;28;20028;-67
2023/10/03 08:39:13;;;;;;;20.42;6.63;;;;;;;16.87;100.00;101075.28;5072403;28;20229;-67
2023/10/03 08:42:12;;;;;;;17.88;5.30;;;;;;;17.15;100.00;101080.09;5072492;28;20036;-68
2023/10/03 08:44:53;;;;;;;16.58;4.88;;;;;;;17.26;100.00;101077.25;5062976;28;20062;-67
2023/10/03 08:47:28;;;;;;;16.20;4.10;;;;;;;17.36;100.00;101083.28;5061791;28;20141;-67
2023/10/03 08:50:00;;;;;;;14.88;3.88;;;;;;;17.52;100.00;101094.56;5066735;28;20028;-64
2023/10/03 08:52:39;;;;;;;14.25;4.00;;;;;;;17.57;100.00;101104.19;5070101;28;20025;-67
2023/10/03 08:55:07;;;;;;;16.52;3.42;;;;;;;17.50;100.00;101072.31;5065278;28;20033;-66
2023/10/03 08:57:35;;;;;;;13.73;3.30;;;;;;;17.47;100.00;101094.63;5072259;28;20028;-65
2023/10/03 09:00:03;;;;;;;14.15;2.78;;;;;;;17.33;100.00;101100.25;5072343;28;20039;-69
2023/10/03 09:02:31;;;;;;;10.60;2.80;;;;;;;17.24;100.00;101121.78;5072246;28;20500;-68
2023/10/03 09:04:58;;;;;;;6.20;1.70;;;;;;;17.06;100.00;101109.66;5072370;28;20036;-69
2023/10/03 09:07:23;;;;;;;9.40;1.90;;;;;;;16.85;100.00;101116.25;5070853;28;20020;-70
2023/10/03 09:09:50;;;;;;;6.13;1.70;;;;;;;16.62;100.00;101124.66;5064665;28;20110;-68
2023/10/03 09:12:20;;;;;;;6.43;1.83;;;;;;;16.70;100.00;101126.28;5067442;28;20048;-71
2023/10/03 09:14:53;;;;;;;7.32;2.00;;;;;;;16.84;100.00;101143.84;5062114;28;20467;-67
2023/10/03 09:17:22;;;;;;;7.22;2.08;;;;;;;17.12;100.00;101146.94;5065355;28;20032;-67
2023/10/03 09:19:50;;;;;;;8.20;2.10;;;;;;;17.44;100.00;101150.81;5065643;28;20028;-70
2023/10/03 09:22:37;;;;;;;8.98;2.25;;;;;;;17.62;100.00;101167.38;5060679;28;20103;-67
2023/10/03 09:25:07;;;;;;;8.32;2.28;;;;;;;17.62;100.00;101180.75;5067902;28;20024;-70
2023/10/03 09:27:32;;;;;;;10.95;2.50;;;;;;;17.54;100.00;101189.78;5062540;28;20374;-70
2023/10/03 09:29:59;;;;;;;7.40;2.25;;;;;;;17.40;100.00;101182.06;5068083;28;20041;-71
2023/10/03 09:32:25;;;;;;;10.23;2.42;;;;;;;17.31;100.00;101192.91;5059631;28;20031;-71
2023/10/03 09:34:56;;;;;;;7.93;2.30;;;;;;;17.24;100.00;101194.81;5067896;28;20033;-71
2023/10/03 09:37:28;;;;;;;11.18;2.53;;;;;;;17.06;100.00;101201.34;5068144;28;20029;-69
2023/10/03 09:39:58;;;;;;;8.15;2.30;;;;;;;16.99;100.00;101201.47;5075647;28;20024;-72
2023/10/03 09:42:24;;;;;;;9.23;2.40;;;;;;;16.96;100.00;101201.53;5066621;28;20448;-71
2023/10/03 09:44:50;;;;;;;12.65;2.30;;;;;;;16.83;100.00;101195.47;5075640;28;20114;-70
2023/10/03 09:47:19;;;;;;;9.68;2.30;;;;;;;16.82;100.00;101199.03;5075044;28;20391;-71
2023/10/03 09:49:47;;;;;;;12.10;2.50;;;;;;;16.81;100.00;101198.16;5075391;28;20040;-70
2023/10/03 09:52:26;;;;;;;10.63;2.50;;;;;;;16.74;100.00;101207.16;5074354;28;20046;-70
2023/10/03 09:55:00;;;;;;;14.27;2.58;;;;;;;16.60;100.00;101220.75;5075664;28;20032;-71
2023/10/03 09:57:29;;;;;;;8.00;2.30;;;;;;;16.62;100.00;101229.59;5075257;28;20052;-71
2023/10/03 09:59:55;;;;;;;8.95;2.30;;;;;;;16.54;100.00;101229.72;5075233;28;20116;-70
2023/10/03 10:02:37;;;;;;;10.82;2.30;;;;;;;16.66;100.00;101225.97;5075859;28;20034;-71
2023/10/03 10:05:19;;;;;;;11.05;2.42;;;;;;;17.00;100.00;101220.13;5072566;28;20085;-71
2023/10/03 10:07:58;;;;;;;11.50;2.40;;;;;;;17.33;100.00;101241.84;5075573;28;20017;-68
2023/10/03 10:10:25;;;;;;;9.07;2.20;;;;;;;17.50;100.00;101243.34;5072385;28;20060;-71
2023/10/03 10:13:13;;;;;;;9.32;2.20;;;;;;;17.67;100.00;101227.88;5075225;28;20033;-71
2023/10/03 10:16:01;;;;;;;11.27;2.30;;;;;;;17.33;100.00;101239.19;5073775;28;20391;-65
2023/10/03 10:18:44;;;;;;;9.70;2.30;;;;;;;17.21;100.00;101258.06;5071336;28;20123;-64
2023/10/03 10:21:25;;;;;;;10.40;2.50;;;;;;;17.03;100.00;101270.81;5066094;28;20078;-69
2023/10/03 10:24:11;;;;;;;10.85;2.38;;;;;;;16.77;100.00;101281.88;5069621;28;20028;-66
2023/10/03 10:26:38;;;;;;;10.38;2.30;;;;;;;16.54;100.00;101287.53;5071931;28;20040;-66
2023/10/03 10:29:14;;;;;;;10.48;2.22;;;;;;;16.48;100.00;101299.16;5070698;28;20467;-66
2023/10/03 10:31:44;;;;;;;7.50;2.28;;;;;;;16.49;100.00;101289.38;5071772;28;20181;-66
2023/10/03 10:34:21;;;;;;;10.70;2.50;;;;;;;16.47;100.00;101301.84;5074931;28;20024;-65
2023/10/03 10:37:03;;;;;;;10.75;2.58;;;;;;;16.88;100.00;101306.66;5074806;28;20087;-67
2023/10/03 10:40:09;;;;;;;10.75;2.40;;;;;;;17.49;100.00;101300.34;5071773;28;20024;-65
2023/10/03 10:42:55;;;;;;;10.23;2.40;;;;;;;17.57;100.00;101311.81;5072845;28;20464;-64
2023/10/03 10:45:21;;;;;;;9.25;2.13;;;;;;;17.53;100.00;101312.75;5070743;28;20037;-67
2023/10/03 10:47:54;;;;;;;12.05;2.40;;;;;;;17.49;100.00;101321.75;5074479;28;20129;-64
2023/10/03 10:50:25;;;;;;;11.43;2.30;;;;;;;17.41;100.00;101328.09;5074571;28;20037;-64
2023/10/03 10:53:02;;;;;;;7.30;2.00;;;;;;;17.30;100.00;101321.16;5070707;28;20043;-64
2023/10/03 10:55:28;;;;;;;8.63;1.77;;;;;;;17.17;100.00;101323.13;5071740;28;20031;-66
2023/10/03 10:58:13;;;;;;;6.95;1.90;;;;;;;17.18;100.00;101331.16;5071384;28;20020;-64
2023/10/03 11:00:40;;;;;;;8.07;2.20;;;;;;;16.83;100.00;101332.50;5074072;28;20052;-63
2023/10/03 11:03:06;;;;;;;5.53;2.00;;;;;;;16.58;100.00;101339.97;5074329;28;20051;-65
2023/10/03 11:05:47;;;;;;;8.60;2.20;;;;;;;16.32;100.00;101351.81;5073828;28;20017;-63
2023/10/03 11:08:12;;;;;;;5.70;2.10;;;;;;;16.14;100.00;101352.03;5068819;28;20028;-63
2023/10/03 11:10:49;;;;;;;5.07;2.30;;;;;;;16.23;100.00;101357.25;5069775;28;20475;-61
2023/10/03 11:13:14;;;;;;;7.70;2.28;;;;;;;16.29;100.00;101369.66;5060558;28;20112;-64